Nearby METAR Reports

 

KSNK - Snyder/Winston, Texas, USA
Distance from station: SSE 25mi, 41km
Updated: Sun, 05-Apr-2020 11:15am CDT
Fog, Overcast
Fog, Overcast
 Wind from E
Wind: E 9 mph , 15 km/h
Temperature: 48°F , 9°C
Wind Chill: 44°F , 7°C
Dew Point: 48°F , 9°C
Humidity: 100%
Barometer: 30.05 inHg , 1017.6 hPa
Summary: Fog
Clouds: Overcast
Visibility: 1/2 mile , 0.8 km
Cloud details: Overcast 200 ft
2020/04/05 16:15 KSNK 051615Z AUTO 09008KT 1/2SM FG OVC002 09/09 A3005 RMK AO2 T00930093
KSWW - Sweetwater, Texas, USA
Distance from station: SE 56mi, 90km
Updated: Sun, 05-Apr-2020 11:15am CDT
Overcast
Overcast
 Wind from E
Wind: E 7 mph , 11 km/h
Temperature: 52°F , 11°C
Dew Point: 52°F , 11°C
Humidity: 100%
Barometer: 30.08 inHg , 1018.6 hPa
Clouds: Overcast
Visibility: 4 miles , 6 km
Cloud details: Overcast 100 ft
2020/04/05 16:15 KSWW 051615Z AUTO 09006KT 4SM OVC001 11/11 A3008 RMK AO2 T01080108
 
KLBB - Lubbock, Texas, USA
Distance from station: NW 59mi, 94km
Updated: Sun, 05-Apr-2020 11:05am CDT
Mist, Overcast
Mist, Overcast
 Wind from S
Wind: S 10 mph , 17 km/h
Temperature: 52°F , 11°C
Dew Point: 48°F , 9°C
Humidity: 88%
Barometer: 30.01 inHg , 1016.3 hPa
Summary: Mist
Clouds: Overcast
Visibility: 6 miles , 10 km
Cloud details: Overcast 600 ft
2020/04/05 16:05 KLBB 051605Z 18009KT 6SM BR OVC006 11/09 A3001 RMK AO2 CIG 003V008 T01060089 $
KPVW - Plainview, Texas, USA
Distance from station: NNW 85mi, 137km
Updated: Sun, 05-Apr-2020 11:15am CDT
Overcast
Overcast
 Wind from S
Wind: S 9 mph , 15 km/h
Temperature: 50°F , 10°C
Wind Chill: 46°F , 8°C
Dew Point: 48°F , 9°C
Humidity: 94%
Barometer: 30.02 inHg , 1016.6 hPa
Clouds: Overcast
Visibility: 10 miles , 16 km
Cloud details: Overcast 700 ft
2020/04/05 16:15 KPVW 051615Z AUTO 18008KT 10SM OVC007 10/09 A3002 RMK AO2 T00970085
 
KDYS - Dyess Afb/Abilen, Texas, USA
Distance from station: ESE 88mi, 141km
Updated: Sun, 05-Apr-2020 10:56am CDT
Overcast
Overcast
 Wind from ESE
Wind: ESE 8 mph , 13 km/h
Temperature: 50°F , 10°C
Wind Chill: 47°F , 8°C
Dew Point: 46°F , 8°C
Humidity: 88%
Barometer: 30.05 inHg , 1017.6 hPa
Clouds: Overcast
Visibility: 10 miles , 16 km
Cloud details: Overcast 500 ft
2020/04/05 15:56 KDYS 051556Z AUTO 11007KT 10SM OVC005 10/08 A3005 RMK AO2 SLP171 T01040078
KGNC - Seminole, Texas, USA
Distance from station: WSW 89mi, 144km
Updated: Sun, 05-Apr-2020 11:15am CDT
Overcast
Overcast
 Wind from SSE
Wind: SSE 6 mph , 9 km/h
Temperature: 52°F , 11°C
Dew Point: 52°F , 11°C
Humidity: 100%
Barometer: 30.05 inHg , 1017.6 hPa
Clouds: Overcast
Visibility: 10 miles , 16 km
Cloud details: Overcast 600 ft
2020/04/05 16:15 KGNC 051615Z AUTO 15005KT 10SM OVC006 11/11 A3005 RMK AO2 T01110105
 
KE11 - Andrews, Texas, USA
Distance from station: WSW 93mi, 149km
Updated: Sun, 05-Apr-2020 11:15am CDT
Mist, Overcast
Mist, Overcast
 Wind from SSE
Wind: SSE 6 mph , 9 km/h
Temperature: 52°F , 11°C
Dew Point: 52°F , 11°C
Humidity: 100%
Barometer: 30.02 inHg , 1016.6 hPa
Summary: Mist
Clouds: Overcast
Visibility: 4 miles , 6 km
Cloud details: Overcast 400 ft
2020/04/05 16:15 KE11 051615Z AUTO 16005KT 4SM BR OVC004 11/11 A3002 RMK AO2 T01140114
KABI - Abilene, Texas, USA
Distance from station: ESE 96mi, 154km
Updated: Sun, 05-Apr-2020 10:52am CDT
Overcast
Overcast
 Wind from SE
Wind: SE 13 mph , 20 km/h
Temperature: 50°F , 10°C
Wind Chill: 45°F , 7°C
Dew Point: 50°F , 10°C
Humidity: 100%
Barometer: 30.07 inHg , 1018.3 hPa
Clouds: Overcast
Visibility: 10 miles , 16 km
Cloud details: Overcast 500 ft
2020/04/05 15:52 KABI 051552Z 13011KT 10SM OVC005 10/10 A3007 RMK AO2 SLP178 T01000100 $
 
KMAF - Midland, Texas, USA
Distance from station: SW 96mi, 154km
Updated: Sun, 05-Apr-2020 11:16am CDT
Overcast
Overcast
 Wind from S
Wind: S 10 mph , 17 km/h
Temperature: 59°F , 15°C
Dew Point: 54°F , 12°C
Humidity: 82%
Barometer: 30.01 inHg , 1016.3 hPa
Clouds: Overcast
Visibility: 10 miles , 16 km
Cloud details: Mostly cloudy 1000 ft
Overcast 1300 ft
2020/04/05 16:16 KMAF 051616Z 17009KT 10SM BKN010 OVC013 15/12 A3001 RMK AO2 CIG 006V011 T01500117
KCDS - Childress, Texas, USA
Distance from station: NNE 110mi, 177km
Updated: Sun, 05-Apr-2020 11:08am CDT
Mist, Overcast
Mist, Overcast
 Wind from SSE
Wind: SSE 10 mph , 17 km/h
Temperature: 48°F , 9°C
Wind Chill: 44°F , 7°C
Dew Point: 46°F , 8°C
Humidity: 94%
Barometer: 30.07 inHg , 1018.3 hPa
Summary: Mist
Clouds: Overcast
Visibility: 2 1/2 miles , 4 km
Cloud details: Overcast 400 ft
2020/04/05 16:08 KCDS 051608Z AUTO 16009KT 2 1/2SM BR OVC004 09/08 A3007 RMK AO2 T00940083
 
KSJT - San Angelo, Texas, USA
Distance from station: SSE 121mi, 194km
Updated: Sun, 05-Apr-2020 10:51am CDT
Overcast
Overcast
 Wind from E
Wind: E 7 mph , 11 km/h
Temperature: 59°F , 15°C
Dew Point: 54°F , 12°C
Humidity: 82%
Barometer: 30.03 inHg , 1016.9 hPa
Clouds: Overcast
Visibility: 10 miles , 16 km
Cloud details: Overcast 1100 ft
2020/04/05 15:51 KSJT 051551Z 09006KT 10SM OVC011 15/12 A3003 RMK AO2 SLP163 T01500122
KHOB - Hobbs/Lea Co., New Mexico, USA
Distance from station: WSW 122mi, 196km
Updated: Sun, 05-Apr-2020 10:50am CDT
Overcast
Overcast
 Wind from SSE
Wind: SSE 7 mph , 11 km/h
Clouds: Overcast
Visibility: 10 miles , 16 km
Cloud details: Overcast 400 ft
2020/04/05 15:50 KHOB 051550Z 16006KT 10SM OVC004 10/010 A3001
 
KCOM - Coleman Muni, Texas, USA
Distance from station: SE 131mi, 212km
Updated: Sun, 05-Apr-2020 11:15am CDT
Overcast
Overcast
 Wind from SE
Wind: SE 9 mph , 15 km/h
Temperature: 52°F , 11°C
Dew Point: 50°F , 10°C
Humidity: 94%
Barometer: 30.09 inHg , 1019 hPa
Clouds: Overcast
Visibility: 7 miles , 11 km
Cloud details: Overcast 300 ft
2020/04/05 16:15 KCOM 051615Z AUTO 13008KT 7SM OVC003 11/10 A3009 RMK AO2 T01080103
KBKD - Breckenridge, Texas, USA
Distance from station: E 134mi, 215km
Updated: Sun, 05-Apr-2020 11:15am CDT
Mist, Overcast
Mist, Overcast
 Wind from S
Wind: S 6 mph , 9 km/h
Temperature: 59°F , 15°C
Dew Point: 55°F , 13°C
Humidity: 88%
Barometer: 30.09 inHg , 1019 hPa
Summary: Mist
Clouds: Overcast
Visibility: 5 miles , 8 km
Cloud details: Partly cloudy 1000 ft
Partly cloudy 1900 ft
Overcast 2800 ft
2020/04/05 16:15 KBKD 051615Z AUTO 18005KT 5SM BR SCT010 SCT019 OVC028 15/13 A3009 RMK AO2 T01520129
 
KF05 - Vernon Wilbarger, Texas, USA
Distance from station: NE 137mi, 220km
Updated: Sun, 05-Apr-2020 11:15am CDT
Overcast
Overcast
 Wind from SSE
Wind: SSE 8 mph , 13 km/h
Temperature: 52°F , 11°C
Dew Point: 48°F , 9°C
Humidity: 88%
Barometer: 30.10 inHg , 1019.3 hPa
Clouds: Overcast
Visibility: 10 miles , 16 km
Cloud details: Overcast 700 ft
2020/04/05 16:15 KF05 051615Z AUTO 15007KT 10SM OVC007 11/09 A3010 RMK AO1 T01120092